createdAt,value
2019-01-19T14:19:00.147Z,79.34
2019-01-19T14:20:00.211Z,79.82
2019-01-19T14:21:00.227Z,80.00
2019-01-19T14:22:00.280Z,80.38
2019-01-19T14:23:00.332Z,80.57
2019-01-19T14:24:00.392Z,80.95
2019-01-19T14:25:00.450Z,81.52
2019-01-19T14:26:01.252Z,82.33
2019-01-19T14:27:00.562Z,82.52
2019-01-19T14:28:00.608Z,82.37
2019-01-19T14:29:00.672Z,82.24
2019-01-19T14:30:00.728Z,82.52
2019-01-19T14:31:00.780Z,82.05
2019-01-19T14:32:00.840Z,81.33
2019-01-19T14:33:00.894Z,82.14
2019-01-19T14:34:00.956Z,82.75
2019-01-19T14:35:01.017Z,83.00
2019-01-19T14:36:01.064Z,83.56
2019-01-19T14:37:01.124Z,83.66
2019-01-19T14:38:01.180Z,84.23
2019-01-19T14:39:01.281Z,84.99
2019-01-19T14:40:01.303Z,84.89
2019-01-19T14:41:01.356Z,84.70
2019-01-19T14:42:01.418Z,83.85
2019-01-19T14:43:01.477Z,82.62
2019-01-19T14:44:01.545Z,82.05
2019-01-19T14:45:01.601Z,81.67
2019-01-19T14:46:01.653Z,81.38
2019-01-19T14:47:01.713Z,81.95
2019-01-19T14:48:01.775Z,82.43
2019-01-19T14:49:01.844Z,83.37
2019-01-19T14:50:01.897Z,83.00
2019-01-19T14:51:01.949Z,83.94
2019-01-19T14:52:02.012Z,84.32
2019-01-19T14:53:02.070Z,84.42
2019-01-19T14:54:02.130Z,84.99
2019-01-19T14:55:02.334Z,85.08
2019-01-19T14:56:02.246Z,85.27
2019-01-19T14:57:02.308Z,85.65
2019-01-19T14:58:02.366Z,85.74
2019-01-19T14:59:02.490Z,86.31
2019-01-19T15:00:02.497Z,86.22
2019-01-19T15:01:02.586Z,85.65
2019-01-19T15:02:02.658Z,85.17
2019-01-19T15:03:02.762Z,85.27
2019-01-19T15:04:02.726Z,85.55
2019-01-19T15:05:02.790Z,86.12
2019-01-19T15:06:03.014Z,86.12
2019-01-19T15:07:02.902Z,86.50
2019-01-19T15:08:02.962Z,86.69
2019-01-19T15:09:03.943Z,87.26
2019-01-19T15:10:03.178Z,87.64
2019-01-19T15:11:03.152Z,87.73
2019-01-19T15:12:03.202Z,88.40
2019-01-19T15:13:03.267Z,88.40
2019-01-19T15:14:03.322Z,88.59
2019-01-19T15:15:03.390Z,88.59
2019-01-19T15:16:03.446Z,88.64
2019-01-19T15:17:03.498Z,88.92
2019-01-19T15:18:03.560Z,88.82
2019-01-19T15:19:03.618Z,89.39
2019-01-19T15:20:03.683Z,89.49
2019-01-19T15:21:03.746Z,90.06
2019-01-19T15:22:03.795Z,90.15
2019-01-19T15:23:03.855Z,89.58
2019-01-19T15:24:03.916Z,89.68
2019-01-19T15:25:03.991Z,89.68
2019-01-19T15:26:04.049Z,89.96
2019-01-19T15:27:04.091Z,90.06
2019-01-19T15:28:04.150Z,89.96
2019-01-19T15:29:04.211Z,90.63
2019-01-19T15:30:04.287Z,90.34
2019-01-19T15:31:04.351Z,90.15
2019-01-19T15:32:04.391Z,90.25
2019-01-19T15:33:04.451Z,89.96
2019-01-19T15:34:04.507Z,89.96
2019-01-19T15:35:04.575Z,89.87
2019-01-19T15:36:04.635Z,90.53
2019-01-19T15:37:04.688Z,91.19
2019-01-19T15:38:04.744Z,91.19
2019-01-19T15:39:10.751Z,91.19
2019-01-19T15:40:04.872Z,90.72
2019-01-19T15:41:04.932Z,90.81
2019-01-19T15:42:04.982Z,91.38
2019-01-19T15:43:05.040Z,91.48
2019-01-19T15:44:05.100Z,91.19
2019-01-19T15:45:05.252Z,91.29
2019-01-19T15:46:05.220Z,91.15
2019-01-19T15:47:05.640Z,91.91
2019-01-19T15:48:05.336Z,91.81
2019-01-19T15:49:05.397Z,91.53
2019-01-19T15:50:05.460Z,92.19
2019-01-19T15:51:05.524Z,92.29
2019-01-19T15:52:05.579Z,92.47
2019-01-19T15:53:05.632Z,92.57
2019-01-19T15:54:05.689Z,92.38
2019-01-19T15:55:05.756Z,92.66
2019-01-19T15:56:05.816Z,92.66
2019-01-19T15:57:05.872Z,93.13
2019-01-19T15:58:05.926Z,93.32
2019-01-19T15:59:05.998Z,93.42
2019-01-19T16:00:06.045Z,93.32
2019-01-19T16:01:06.197Z,93.23
2019-01-19T16:02:06.169Z,93.80
2019-01-19T16:03:06.220Z,93.80
2019-01-19T16:04:06.289Z,93.61
2019-01-19T16:05:06.341Z,93.89
2019-01-19T16:06:06.405Z,93.80
2019-01-19T16:07:06.461Z,93.51
2019-01-19T16:08:06.513Z,93.61
2019-01-19T16:09:06.575Z,93.61
2019-01-19T16:10:06.629Z,93.80
2019-01-19T16:11:06.697Z,93.89
2019-01-19T16:12:06.797Z,94.37
2019-01-19T16:13:06.805Z,94.37
2019-01-19T16:14:06.870Z,94.37
2019-01-19T16:15:06.922Z,94.56
2019-01-19T16:16:06.990Z,94.56
2019-01-19T16:17:07.054Z,94.84
2019-01-19T16:18:07.099Z,94.18
2019-01-19T16:19:07.158Z,94.65
2019-01-19T16:20:07.218Z,94.46
2019-01-19T16:21:07.274Z,94.56
2019-01-19T16:22:07.354Z,94.37
2019-01-19T16:23:07.390Z,94.60
2019-01-19T16:24:07.450Z,94.37
2019-01-19T16:25:07.506Z,93.42
2019-01-19T16:26:07.563Z,93.61
2019-01-19T16:27:07.635Z,93.42
2019-01-19T16:28:07.692Z,93.32
2019-01-19T16:29:07.738Z,93.42
2019-01-19T16:30:07.799Z,93.89
2019-01-19T16:31:07.858Z,94.37
2019-01-19T16:32:08.325Z,94.42
2019-01-19T16:33:07.979Z,94.32
2019-01-19T16:34:08.030Z,94.23
2019-01-19T16:35:08.088Z,94.23
2019-01-19T16:36:08.151Z,94.60
2019-01-19T16:37:08.299Z,94.60
2019-01-19T16:38:08.259Z,94.51
2019-01-19T16:39:08.324Z,94.51
2019-01-19T16:40:08.379Z,94.70
2019-01-19T16:41:08.435Z,94.79
2019-01-19T16:42:08.499Z,95.74
2019-01-19T16:43:08.559Z,95.45
2019-01-19T16:44:08.615Z,95.93
2019-01-19T16:45:08.667Z,96.31
2019-01-19T16:46:08.726Z,96.59
2019-01-19T16:47:08.792Z,96.69
2019-01-19T16:48:08.847Z,97.16
2019-01-19T16:49:08.899Z,97.06
2019-01-19T16:50:08.959Z,97.25
2019-01-19T16:51:09.013Z,97.91
2019-01-19T16:52:09.088Z,98.01
2019-01-19T16:53:09.130Z,98.77
2019-01-19T16:54:09.188Z,99.43
2019-01-19T16:55:09.246Z,99.52
2019-01-19T16:56:09.306Z,99.99
2019-01-19T16:57:09.368Z,99.99
2019-01-19T16:58:09.428Z,99.99
2019-01-19T16:59:09.476Z,99.99
2019-01-19T17:00:09.532Z,99.80
2019-01-19T17:01:09.592Z,99.80
2019-01-19T17:02:09.656Z,99.24
2019-01-19T17:03:09.712Z,99.43
2019-01-19T17:04:09.764Z,98.86
2019-01-19T17:05:09.824Z,99.33
2019-01-19T17:06:09.888Z,98.86
2019-01-19T17:07:09.948Z,98.77
2019-01-19T17:08:10.000Z,98.29
2019-01-19T17:09:10.049Z,98.67
2019-01-19T17:10:10.111Z,98.10
2019-01-19T17:11:10.173Z,98.67
2019-01-19T17:12:10.257Z,98.20
2019-01-19T17:13:10.509Z,98.10
2019-01-19T17:14:10.341Z,97.34
2019-01-19T17:15:10.397Z,97.53
2019-01-19T17:16:10.457Z,97.25
2019-01-19T17:17:10.521Z,97.11
2019-01-19T17:18:10.577Z,97.20
2019-01-19T17:19:10.629Z,97.11
2019-01-19T17:20:10.685Z,97.39
2019-01-19T17:21:10.741Z,97.01
2019-01-19T17:22:10.809Z,97.01
2019-01-19T17:23:10.869Z,96.92
2019-01-19T17:24:10.915Z,97.01
2019-01-19T17:25:10.977Z,97.01
2019-01-19T17:26:11.032Z,97.39
2019-01-19T17:27:11.213Z,97.96
2019-01-19T17:28:11.145Z,97.39
2019-01-19T17:29:11.202Z,97.20
2019-01-19T17:30:11.255Z,97.30
2019-01-19T17:31:11.318Z,98.14
2019-01-19T17:32:11.382Z,98.14
2019-01-19T17:33:11.438Z,97.77
2019-01-19T17:34:11.490Z,97.01
2019-01-19T17:35:11.574Z,97.20
2019-01-19T17:36:11.607Z,97.11
2019-01-19T17:37:11.670Z,97.11
2019-01-19T17:38:11.726Z,97.49
2019-01-19T17:39:11.778Z,97.67
2019-01-19T17:40:11.834Z,97.20
2019-01-19T17:41:11.902Z,97.96
2019-01-19T17:42:11.954Z,97.77
2019-01-19T17:43:12.010Z,97.86
2019-01-19T17:44:12.066Z,98.14
2019-01-19T17:45:12.119Z,97.58
2019-01-19T17:46:12.174Z,97.49
2019-01-19T17:47:12.331Z,97.58
2019-01-19T17:48:12.294Z,97.86
2019-01-19T17:49:12.350Z,97.96
2019-01-19T17:50:12.403Z,97.86
2019-01-19T17:51:12.471Z,97.77
2019-01-19T17:52:12.527Z,97.96
2019-01-19T17:53:12.583Z,97.86
2019-01-19T17:54:12.631Z,97.20
2019-01-19T17:55:12.717Z,97.77
2019-01-19T17:56:12.747Z,97.77
2019-01-19T17:57:12.811Z,97.77
2019-01-19T17:58:12.866Z,97.86
2019-01-19T17:59:12.921Z,97.30
2019-01-19T18:00:12.975Z,97.39
2019-01-19T18:01:13.031Z,97.49
2019-01-19T18:02:13.191Z,97.20
2019-01-19T18:03:13.147Z,97.39
2019-01-19T18:04:13.205Z,98.05
2019-01-19T18:05:13.259Z,97.58
2019-01-19T18:06:13.315Z,97.77
2019-01-19T18:07:13.384Z,97.96
2019-01-19T18:08:13.439Z,97.86
2019-01-19T18:09:13.490Z,97.77
2019-01-19T18:10:13.544Z,97.30
2019-01-19T18:11:13.600Z,97.49
2019-01-19T18:12:13.670Z,97.67
2019-01-19T18:13:13.723Z,97.77
2019-01-19T18:14:13.772Z,97.86
2019-01-19T18:15:13.828Z,97.77
2019-01-19T18:16:13.888Z,97.77
2019-01-19T18:17:13.952Z,97.86
2019-01-19T18:18:14.008Z,97.96
2019-01-19T18:19:14.056Z,98.05
2019-01-19T18:20:14.112Z,97.86
2019-01-19T18:21:14.172Z,98.05
2019-01-19T18:22:14.336Z,97.96
2019-01-19T18:23:14.284Z,98.14
2019-01-19T18:24:14.346Z,97.96
2019-01-19T18:25:14.400Z,98.05
2019-01-19T18:26:14.456Z,97.49
2019-01-19T18:27:14.520Z,98.14
2019-01-19T18:28:14.577Z,97.77
2019-01-19T18:29:14.625Z,98.24
2019-01-19T18:30:14.681Z,97.96
2019-01-19T18:31:14.741Z,97.96
2019-01-19T18:32:14.805Z,97.86
2019-01-19T18:33:14.869Z,98.14
2019-01-19T18:34:14.911Z,97.96
2019-01-19T18:35:14.966Z,98.05
2019-01-19T18:36:15.025Z,97.86
2019-01-19T18:37:15.153Z,97.96
2019-01-19T18:38:15.138Z,97.96
2019-01-19T18:39:15.193Z,98.24
2019-01-19T18:40:15.250Z,97.58
2019-01-19T18:41:15.305Z,97.96
2019-01-19T18:42:15.461Z,97.96
2019-01-19T18:43:15.436Z,98.14
2019-01-19T18:44:15.478Z,97.58
2019-01-19T18:45:15.565Z,98.24
2019-01-19T18:46:15.600Z,98.62
2019-01-19T18:47:15.669Z,98.33
2019-01-19T18:48:15.729Z,98.43
2019-01-19T18:49:15.766Z,98.81
2019-01-19T18:50:15.826Z,98.05
2019-01-19T18:51:15.876Z,97.67
2019-01-19T18:52:15.939Z,97.77
2019-01-19T18:53:16.032Z,97.58
2019-01-19T18:54:16.055Z,97.77
2019-01-19T18:55:16.099Z,97.30
2019-01-19T18:56:16.154Z,97.86
2019-01-19T18:57:16.286Z,97.20
2019-01-19T18:58:16.270Z,97.20
2019-01-19T18:59:16.326Z,97.20
2019-01-19T19:00:16.385Z,96.45
2019-01-19T19:01:16.443Z,96.45
2019-01-19T19:02:16.502Z,97.11
2019-01-19T19:03:16.559Z,97.20
2019-01-19T19:04:16.606Z,96.64
2019-01-19T19:05:16.663Z,97.11
2019-01-19T19:06:16.719Z,96.73
2019-01-19T19:07:16.782Z,97.01
2019-01-19T19:08:16.839Z,97.20
2019-01-19T19:09:16.891Z,97.01
2019-01-19T19:10:16.951Z,96.83
2019-01-19T19:11:17.003Z,96.73
2019-01-19T19:12:17.067Z,96.45
2019-01-19T19:13:17.124Z,96.45
2019-01-19T19:14:17.175Z,96.73
2019-01-19T19:15:17.227Z,97.11
2019-01-19T19:16:17.284Z,97.20
2019-01-19T19:17:17.347Z,97.30
2019-01-19T19:18:17.404Z,97.20
2019-01-19T19:19:17.451Z,97.20
2019-01-19T19:20:17.507Z,97.06
2019-01-19T19:21:17.564Z,97.77
2019-01-19T19:22:17.632Z,97.39
2019-01-19T19:23:17.684Z,97.30
2019-01-19T19:24:17.732Z,98.05
2019-01-19T19:25:17.792Z,98.05
2019-01-19T19:26:17.844Z,97.20
2019-01-19T19:27:17.908Z,97.67
2019-01-19T19:28:17.967Z,97.72
2019-01-19T19:29:18.016Z,97.67
2019-01-19T19:30:18.073Z,97.81
2019-01-19T19:31:18.129Z,97.30
2019-01-19T19:32:18.215Z,97.34
2019-01-19T19:33:18.240Z,97.25
2019-01-19T19:34:18.298Z,97.20
2019-01-19T19:35:18.357Z,97.91
2019-01-19T19:36:18.408Z,97.91
2019-01-19T19:37:18.476Z,97.34
2019-01-19T19:38:18.529Z,97.91
2019-01-19T19:39:18.577Z,97.91
2019-01-19T19:40:18.634Z,97.44
2019-01-19T19:41:18.688Z,98.10
2019-01-19T19:42:18.753Z,97.53
2019-01-19T19:43:18.813Z,97.81
2019-01-19T19:44:18.857Z,96.96
2019-01-19T19:45:18.915Z,97.15
2019-01-19T19:46:18.969Z,97.34
2019-01-19T19:47:19.033Z,97.53
2019-01-19T19:48:19.090Z,97.15
2019-01-19T19:49:19.143Z,97.63
2019-01-19T19:50:19.193Z,97.34
2019-01-19T19:51:19.249Z,97.34
2019-01-19T19:52:19.313Z,97.81
2019-01-19T19:53:19.373Z,97.81
2019-01-19T19:54:19.423Z,97.72
2019-01-19T19:55:19.476Z,97.72
2019-01-19T19:56:19.529Z,97.53
2019-01-19T19:57:19.594Z,97.72
2019-01-19T19:58:19.650Z,97.72
2019-01-19T19:59:19.698Z,97.91
2019-01-19T20:00:19.754Z,97.81
2019-01-19T20:01:19.814Z,97.72
2019-01-19T20:02:19.874Z,98.19
2019-01-19T20:03:19.939Z,98.76
2019-01-19T20:04:19.978Z,98.47
2019-01-19T20:05:20.038Z,98.19
2019-01-19T20:06:20.114Z,98.66
2019-01-19T20:07:20.234Z,98.66
2019-01-19T20:08:20.206Z,98.66
2019-01-19T20:09:20.262Z,98.66
2019-01-19T20:10:20.315Z,98.38
2019-01-19T20:11:20.374Z,98.19
2019-01-19T20:12:20.438Z,98.28
2019-01-19T20:13:20.494Z,98.47
2019-01-19T20:14:20.543Z,98.19
2019-01-19T20:15:20.599Z,98.66
2019-01-19T20:16:20.654Z,98.38
2019-01-19T20:17:20.718Z,98.10
2019-01-19T20:18:20.780Z,97.44
2019-01-19T20:19:20.823Z,98.10
2019-01-19T20:20:20.878Z,97.63
2019-01-19T20:21:20.935Z,97.81
2019-01-19T20:22:20.995Z,98.10
2019-01-19T20:23:21.051Z,98.00
2019-01-19T20:24:21.103Z,98.00
2019-01-19T20:25:21.159Z,97.34
2019-01-19T20:26:21.211Z,97.06
2019-01-19T20:27:21.362Z,97.15
2019-01-19T20:28:21.327Z,97.72
2019-01-19T20:29:21.387Z,97.72
2019-01-19T20:30:21.435Z,97.72
2019-01-19T20:31:21.495Z,97.25
2019-01-19T20:32:21.555Z,97.72
2019-01-19T20:33:21.617Z,97.44
2019-01-19T20:34:21.659Z,97.72
2019-01-19T20:35:21.715Z,97.44
2019-01-19T20:36:21.776Z,97.81
2019-01-19T20:37:21.836Z,97.81
2019-01-19T20:38:21.892Z,98.47
2019-01-19T20:39:21.940Z,98.47
2019-01-19T20:40:24.545Z,98.10
2019-01-19T20:41:22.052Z,98.28
2019-01-19T20:42:22.204Z,98.47
2019-01-19T20:43:22.165Z,98.47
2019-01-19T20:44:22.220Z,98.76
2019-01-19T20:45:22.276Z,98.28
2019-01-19T20:46:22.328Z,98.66
2019-01-19T20:47:22.392Z,98.47
2019-01-19T20:48:22.448Z,97.53
2019-01-19T20:49:22.500Z,97.91
2019-01-19T20:50:22.553Z,97.81
2019-01-19T20:51:22.608Z,97.53
2019-01-19T20:52:22.805Z,97.72
2019-01-19T20:53:22.728Z,97.15
2019-01-19T20:54:22.780Z,97.15
2019-01-19T20:55:22.833Z,96.96
2019-01-19T20:56:22.888Z,96.68
2019-01-19T20:57:22.953Z,96.96
2019-01-19T20:58:23.009Z,96.87
2019-01-19T20:59:23.057Z,97.06
2019-01-19T21:00:23.113Z,97.15
2019-01-19T21:01:23.169Z,97.25
2019-01-19T21:02:23.277Z,97.06
2019-01-19T21:03:23.277Z,96.96
2019-01-19T21:04:23.343Z,97.15
2019-01-19T21:05:23.389Z,97.25
2019-01-19T21:06:23.446Z,97.72
2019-01-19T21:07:23.613Z,97.67
2019-01-19T21:08:23.569Z,98.05
2019-01-19T21:09:23.613Z,97.67
2019-01-19T21:10:23.670Z,97.48
2019-01-19T21:11:23.725Z,97.39
2019-01-19T21:12:23.825Z,98.05
2019-01-19T21:13:23.845Z,97.86
2019-01-19T21:14:23.894Z,98.14
2019-01-19T21:15:23.950Z,98.61
2019-01-19T21:16:24.006Z,99.08
2019-01-19T21:17:24.066Z,98.80
